Time;durP1;ratioP1;P1;durP2;ratioP2;P2;SDS_P1;SDS_P2;PMS_P1;PMS_P2;Temp;Humidity;BMP_temperature;BMP_pressure;BME280_temperature;BME280_humidity;BME280_pressure;Samples;Min_cycle;Max_cycle;Signal;HPM_P1;HPM_P2
2022/08/07 00:02:08;;;;;;;10.05;6.20;;;17.30;57.10;;;;;;9183227;19;20022;-66
2022/08/07 00:05:36;;;;;;;8.02;5.18;;;17.20;57.20;;;;;;9179634;19;20021;-66
2022/08/07 00:08:41;;;;;;;9.65;5.40;;;17.20;57.30;;;;;;9181601;19;20014;-65
2022/08/07 00:11:48;;;;;;;9.90;5.35;;;17.20;57.30;;;;;;9173601;19;20369;-65
2022/08/07 00:15:02;;;;;;;;;;;17.10;57.30;;;;;;9177357;19;20365;-67
2022/08/07 00:18:08;;;;;;;9.80;6.15;;;17.10;57.20;;;;;;9176528;19;19919;-65
2022/08/07 00:21:26;;;;;;;12.55;6.07;;;17.00;57.20;;;;;;9176078;19;20040;-64
2022/08/07 00:24:51;;;;;;;12.00;6.53;;;17.00;57.40;;;;;;9178489;19;20027;-65
2022/08/07 00:27:56;;;;;;;8.95;6.38;;;16.90;57.40;;;;;;9175912;19;20015;-65
2022/08/07 00:31:03;;;;;;;9.98;6.47;;;16.90;57.50;;;;;;9177038;19;20082;-65
2022/08/07 00:34:16;;;;;;;10.17;6.90;;;16.90;57.60;;;;;;9176524;19;20029;-64
2022/08/07 00:37:28;;;;;;;8.80;5.78;;;16.80;57.70;;;;;;9174847;19;20021;-65
2022/08/07 00:40:52;;;;;;;12.02;6.50;;;16.80;57.80;;;;;;9177650;19;20018;-67
2022/08/07 00:43:57;;;;;;;8.63;5.65;;;16.80;57.80;;;;;;9175341;19;20015;-64
2022/08/07 00:47:07;;;;;;;8.80;5.80;;;16.70;57.90;;;;;;9174707;19;20014;-64
2022/08/07 00:50:32;;;;;;;12.00;6.78;;;16.70;58.00;;;;;;9173902;19;20021;-67
2022/08/07 00:53:58;;;;;;;9.70;6.22;;;16.60;58.00;;;;;;9175967;19;21252;-65
2022/08/07 00:57:04;;;;;;;11.38;5.55;;;16.60;58.10;;;;;;9175297;19;20017;-64
2022/08/07 01:00:12;;;;;;;9.13;6.05;;;16.60;58.20;;;;;;9174280;19;20011;-68
2022/08/07 01:03:18;;;;;;;10.73;6.50;;;16.50;58.30;;;;;;9173743;19;20014;-65
2022/08/07 01:06:43;;;;;;;10.50;6.75;;;16.50;58.30;;;;;;9175414;19;20026;-64
2022/08/07 01:09:51;;;;;;;10.05;6.30;;;16.50;58.50;;;;;;9169741;19;20021;-64
2022/08/07 01:13:09;;;;;;;11.18;6.80;;;16.40;58.50;;;;;;9172658;19;20578;-65
2022/08/07 01:16:20;;;;;;;10.95;6.80;;;16.40;58.50;;;;;;9175479;19;20106;-65
2022/08/07 01:19:35;;;;;;;12.27;5.80;;;16.40;58.60;;;;;;9170434;19;20034;-66
2022/08/07 01:22:49;;;;;;;11.95;6.20;;;16.30;58.60;;;;;;9175276;19;20480;-65
2022/08/07 01:26:16;;;;;;;9.30;6.40;;;16.30;58.80;;;;;;9177295;19;20032;-66
2022/08/07 01:29:26;;;;;;;11.57;6.85;;;16.20;58.80;;;;;;9181956;19;20026;-65
2022/08/07 01:32:38;;;;;;;9.23;6.38;;;16.20;58.80;;;;;;9181288;19;20022;-64
2022/08/07 01:35:45;;;;;;;10.32;5.60;;;16.20;58.90;;;;;;9185199;19;20345;-64
2022/08/07 01:39:02;;;;;;;13.32;6.63;;;16.20;59.00;;;;;;9182592;19;20022;-64
2022/08/07 01:42:14;;;;;;;9.02;6.30;;;16.20;59.10;;;;;;9181530;19;20034;-65
2022/08/07 01:45:40;;;;;;;11.18;6.53;;;16.10;59.10;;;;;;9183431;19;20018;-66
2022/08/07 01:48:54;;;;;;;11.45;6.55;;;16.10;59.10;;;;;;9181324;19;20021;-64
2022/08/07 01:52:05;;;;;;;12.43;6.80;;;16.00;59.20;;;;;;9179924;19;20022;-64
2022/08/07 01:55:18;;;;;;;9.70;7.10;;;16.00;59.30;;;;;;9181332;19;20038;-64
2022/08/07 01:58:32;;;;;;;10.13;6.82;;;16.00;59.40;;;;;;9181533;19;20026;-64
2022/08/07 02:01:50;;;;;;;13.75;7.25;;;15.90;59.40;;;;;;9181081;19;20014;-65
2022/08/07 02:05:10;;;;;;;11.52;6.93;;;15.90;59.40;;;;;;9179921;19;20014;-64
2022/08/07 02:08:40;;;;;;;13.57;7.32;;;15.80;59.50;;;;;;9180678;19;20022;-66
2022/08/07 02:11:51;;;;;;;13.35;7.63;;;15.80;59.60;;;;;;9177164;19;20491;-65
2022/08/07 02:15:15;;;;;;;12.45;6.93;;;15.70;59.70;;;;;;9177223;19;20011;-63
2022/08/07 02:18:22;;;;;;;15.15;6.78;;;15.70;59.70;;;;;;9180114;19;20018;-65
2022/08/07 02:21:34;;;;;;;13.40;8.23;;;15.60;59.80;;;;;;9180260;19;20363;-63
2022/08/07 02:25:01;;;;;;;13.20;6.95;;;15.60;59.90;;;;;;9181729;19;20025;-64
2022/08/07 02:28:16;;;;;;;16.55;7.47;;;15.60;60.00;;;;;;9179258;19;20038;-65
2022/08/07 02:31:33;;;;;;;11.57;7.15;;;15.50;60.10;;;;;;9179177;19;20782;-65
2022/08/07 02:34:40;;;;;;;10.73;7.35;;;15.50;60.20;;;;;;9181299;19;20053;-64
2022/08/07 02:37:57;;;;;;;10.30;6.97;;;15.40;60.20;;;;;;9178130;19;20351;-66
2022/08/07 02:41:05;;;;;;;14.77;8.05;;;15.40;60.30;;;;;;9179622;19;20032;-65
2022/08/07 02:44:18;;;;;;;13.77;7.50;;;15.40;60.40;;;;;;9180305;19;20107;-66
2022/08/07 02:47:24;;;;;;;10.77;7.40;;;15.30;60.50;;;;;;9178273;19;20128;-63
2022/08/07 02:50:41;;;;;;;15.30;8.02;;;15.30;60.50;;;;;;9179840;19;20014;-64
2022/08/07 02:53:52;;;;;;;10.85;7.30;;;15.30;60.60;;;;;;9176742;19;20040;-65
2022/08/07 02:57:03;;;;;;;11.88;7.95;;;15.20;60.60;;;;;;9178735;19;20029;-63
2022/08/07 03:00:15;;;;;;;10.50;6.55;;;15.30;60.70;;;;;;9179078;19;20025;-65
2022/08/07 03:03:24;;;;;;;13.65;7.20;;;15.20;60.70;;;;;;9178084;19;20038;-64
2022/08/07 03:06:48;;;;;;;12.50;7.78;;;15.10;60.70;;;;;;9177264;19;20109;-64
2022/08/07 03:09:54;;;;;;;16.05;7.22;;;15.10;60.70;;;;;;9173974;19;20014;-63
2022/08/07 03:12:59;;;;;;;15.20;7.45;;;15.10;60.80;;;;;;9179515;19;20026;-64
2022/08/07 03:16:11;;;;;;;15.73;8.85;;;15.00;60.80;;;;;;9176916;19;20018;-64
2022/08/07 03:19:16;;;;;;;14.48;8.50;;;15.00;61.70;;;;;;9178885;19;20029;-64
2022/08/07 03:22:27;;;;;;;18.35;9.68;;;14.90;61.10;;;;;;9178116;19;20119;-65
2022/08/07 03:25:36;;;;;;;15.77;9.80;;;14.90;61.30;;;;;;9178694;19;20032;-65
2022/08/07 03:28:53;;;;;;;14.20;8.82;;;14.90;61.30;;;;;;9177218;19;20018;-64
2022/08/07 03:32:03;;;;;;;16.40;9.27;;;14.80;61.40;;;;;;9178793;19;20023;-64
2022/08/07 03:35:12;;;;;;;14.57;9.20;;;14.80;61.50;;;;;;9177125;19;20018;-65
2022/08/07 03:38:23;;;;;;;17.05;8.70;;;14.80;61.60;;;;;;9177718;19;20025;-65
2022/08/07 03:41:39;;;;;;;17.40;8.95;;;14.80;61.60;;;;;;9176645;19;20049;-63
2022/08/07 03:44:52;;;;;;;13.57;9.33;;;14.80;61.70;;;;;;9176943;19;21044;-64
2022/08/07 03:48:06;;;;;;;13.85;9.05;;;14.70;61.70;;;;;;9177717;19;20480;-63
2022/08/07 03:51:15;;;;;;;17.42;9.02;;;14.70;61.90;;;;;;9176928;19;20014;-64
2022/08/07 03:54:24;;;;;;;14.55;8.52;;;14.70;61.90;;;;;;9176335;19;20029;-64
2022/08/07 03:57:51;;;;;;;17.92;9.20;;;14.70;62.00;;;;;;9177535;19;20035;-63
2022/08/07 04:01:18;;;;;;;16.65;9.60;;;14.70;62.00;;;;;;9178565;19;20565;-65
2022/08/07 04:04:29;;;;;;;16.90;9.55;;;14.60;62.10;;;;;;9176109;19;20074;-64
2022/08/07 04:07:46;;;;;;;17.65;9.27;;;14.60;62.20;;;;;;9175919;19;20049;-64
2022/08/07 04:10:56;;;;;;;15.25;9.35;;;14.60;62.30;;;;;;9172771;19;20011;-65
2022/08/07 04:14:21;;;;;;;19.10;9.05;;;14.60;62.30;;;;;;9174420;19;20357;-64
2022/08/07 04:17:44;;;;;;;15.80;9.35;;;14.50;62.20;;;;;;9174939;19;20034;-64
2022/08/07 04:21:12;;;;;;;14.90;9.15;;;14.50;62.30;;;;;;9176078;19;20114;-64
2022/08/07 04:24:21;;;;;;;14.20;8.15;;;14.50;62.40;;;;;;9176805;19;20014;-63
2022/08/07 04:27:40;;;;;;;11.93;7.20;;;14.50;62.40;;;;;;9174939;19;20515;-63
2022/08/07 04:30:53;;;;;;;11.63;7.50;;;14.40;62.30;;;;;;9175622;19;20050;-64
2022/08/07 04:34:09;;;;;;;16.77;8.18;;;14.40;62.40;;;;;;9173482;19;20017;-65
2022/08/07 04:37:24;;;;;;;18.02;8.35;;;14.40;62.40;;;;;;9175139;19;20019;-65
2022/08/07 04:40:33;;;;;;;17.98;8.75;;;14.40;62.50;;;;;;9174817;19;20018;-64
2022/08/07 04:43:42;;;;;;;14.20;8.60;;;14.30;62.50;;;;;;9175233;19;20015;-63
2022/08/07 04:47:22;;;;;;;13.93;8.82;;;14.30;62.70;;;;;;9173563;19;20026;-65
2022/08/07 04:50:55;;;;;;;13.35;8.88;;;14.30;62.70;;;;;;9174300;19;20017;-64
2022/08/07 04:54:09;;;;;;;14.40;9.48;;;14.30;62.90;;;;;;9175535;19;20019;-63
2022/08/07 04:57:24;;;;;;;17.95;9.35;;;14.30;63.00;;;;;;9176263;19;20047;-63
2022/08/07 05:00:54;;;;;;;19.67;10.68;;;14.30;63.10;;;;;;9174421;19;20011;-64
2022/08/07 05:04:11;;;;;;;19.00;11.13;;;14.20;63.10;;;;;;9174105;19;20045;-63
2022/08/07 05:07:27;;;;;;;21.17;11.43;;;14.30;63.50;;;;;;9176409;19;20014;-64
2022/08/07 05:10:50;;;;;;;18.35;10.68;;;14.20;63.30;;;;;;9170482;19;20836;-64
2022/08/07 05:14:10;;;;;;;;;;;14.20;63.50;;;;;;9173792;19;20029;-66
2022/08/07 05:17:37;;;;;;;17.70;10.93;;;14.30;63.20;;;;;;9173011;19;19914;-63
2022/08/07 05:21:01;;;;;;;18.83;11.05;;;14.30;63.20;;;;;;9173640;19;20015;-66
2022/08/07 05:24:15;;;;;;;19.00;11.23;;;14.30;63.40;;;;;;9175181;19;20025;-64
2022/08/07 05:27:26;;;;;;;23.35;12.27;;;14.30;63.60;;;;;;9174330;19;20054;-66
2022/08/07 05:30:53;;;;;;;23.35;11.80;;;14.30;63.70;;;;;;9173132;19;20023;-63
2022/08/07 05:34:02;;;;;;;24.35;11.30;;;14.40;63.70;;;;;;9173443;19;20022;-64
2022/08/07 05:37:16;;;;;;;22.90;12.95;;;14.40;63.90;;;;;;9173047;19;20014;-64
2022/08/07 05:40:36;;;;;;;20.30;12.15;;;14.40;63.90;;;;;;9172934;19;20494;-63
2022/08/07 05:43:58;;;;;;;26.80;12.50;;;14.50;64.10;;;;;;9171762;19;20018;-64
2022/08/07 05:47:19;;;;;;;24.02;12.45;;;14.50;64.20;;;;;;9172702;19;20002;-64
2022/08/07 05:50:43;;;;;;;21.83;12.65;;;14.60;64.20;;;;;;9172978;19;20022;-65
2022/08/07 05:53:51;;;;;;;23.65;12.63;;;14.60;64.20;;;;;;9170286;19;20011;-65
2022/08/07 05:57:17;;;;;;;20.20;11.07;;;14.70;64.40;;;;;;9170346;19;20014;-63
2022/08/07 06:00:26;;;;;;;22.88;12.57;;;14.80;64.40;;;;;;9165973;19;20030;-63
2022/08/07 06:03:38;;;;;;;19.52;11.77;;;14.90;64.70;;;;;;9168034;19;20113;-62
2022/08/07 06:07:06;;;;;;;22.52;12.70;;;15.00;64.60;;;;;;9168754;19;20048;-64
2022/08/07 06:10:15;;;;;;;22.13;11.10;;;15.10;64.70;;;;;;9163128;19;20027;-63
2022/08/07 06:13:23;;;;;;;22.67;12.50;;;15.30;64.80;;;;;;9172842;19;20007;-63
2022/08/07 06:16:52;;;;;;;23.20;12.65;;;15.40;64.80;;;;;;9178991;19;20022;-66
2022/08/07 06:20:11;;;;;;;21.17;12.20;;;15.60;64.90;;;;;;9179828;19;20018;-63
2022/08/07 06:23:37;;;;;;;19.75;12.20;;;15.80;64.90;;;;;;9184724;19;20495;-63
2022/08/07 06:27:03;;;;;;;22.58;13.43;;;16.00;64.80;;;;;;9185631;19;20022;-63
2022/08/07 06:30:11;;;;;;;23.05;13.50;;;16.20;64.90;;;;;;9186090;19;20501;-63
2022/08/07 06:33:39;;;;;;;27.15;13.38;;;16.30;64.90;;;;;;9184434;19;20015;-65
2022/08/07 06:36:45;;;;;;;23.83;12.98;;;16.50;64.90;;;;;;9185049;19;20018;-63
2022/08/07 06:39:52;;;;;;;20.58;11.88;;;16.70;64.80;;;;;;9184845;19;20010;-63
2022/08/07 06:43:20;;;;;;;18.80;10.85;;;16.90;64.90;;;;;;9184476;19;20484;-63
2022/08/07 06:46:46;;;;;;;19.55;11.45;;;17.10;64.70;;;;;;9183919;19;20369;-63
2022/08/07 06:50:14;;;;;;;20.52;11.10;;;17.30;64.60;;;;;;9184814;19;20046;-62
2022/08/07 06:53:24;;;;;;;19.92;11.50;;;17.50;64.50;;;;;;9183918;19;20018;-63
2022/08/07 06:56:52;;;;;;;15.52;9.85;;;17.70;64.40;;;;;;9182861;19;20031;-65
2022/08/07 07:00:04;;;;;;;17.13;9.63;;;17.80;64.30;;;;;;9183390;19;20022;-64
2022/08/07 07:03:22;;;;;;;14.25;9.30;;;18.00;64.20;;;;;;9183784;19;20135;-63
2022/08/07 07:06:50;;;;;;;20.17;9.52;;;18.20;64.20;;;;;;9185191;19;20014;-63
2022/08/07 07:10:06;;;;;;;15.32;8.70;;;18.40;64.00;;;;;;9179145;19;20018;-63
2022/08/07 07:13:16;;;;;;;13.18;7.10;;;18.70;64.00;;;;;;9183717;19;20018;-64
2022/08/07 07:16:43;;;;;;;12.82;6.75;;;18.90;63.90;;;;;;9182597;19;20436;-64
2022/08/07 07:20:00;;;;;;;13.93;7.63;;;19.10;63.80;;;;;;9183691;19;20523;-64
2022/08/07 07:23:13;;;;;;;13.60;8.00;;;19.40;63.60;;;;;;9183763;19;20470;-65
2022/08/07 07:26:40;;;;;;;14.70;7.63;;;19.60;63.30;;;;;;9182465;19;20358;-64
2022/08/07 07:30:00;;;;;;;19.88;8.77;;;19.80;63.10;;;;;;9182666;19;20344;-63
2022/08/07 07:33:17;;;;;;;13.20;8.85;;;20.10;62.90;;;;;;9181622;19;20018;-64
2022/08/07 07:36:24;;;;;;;12.40;7.55;;;20.30;63.40;;;;;;9175941;19;20010;-64
2022/08/07 07:39:41;;;;;;;13.00;7.63;;;20.50;62.60;;;;;;9177771;19;20142;-66
2022/08/07 07:43:02;;;;;;;12.32;7.78;;;20.70;62.30;;;;;;9176541;19;20022;-63
2022/08/07 07:46:24;;;;;;;14.27;6.70;;;20.90;62.10;;;;;;9183971;19;20010;-65
2022/08/07 07:49:52;;;;;;;11.85;6.32;;;21.20;61.90;;;;;;9183709;19;20616;-64
2022/08/07 07:53:21;;;;;;;10.07;6.25;;;21.40;61.60;;;;;;9182110;19;20015;-64
2022/08/07 07:56:34;;;;;;;10.70;5.43;;;21.60;61.40;;;;;;9178786;19;20132;-63
2022/08/07 07:59:41;;;;;;;9.95;4.82;;;21.80;61.20;;;;;;9181186;19;20025;-64
2022/08/07 08:03:00;;;;;;;6.88;3.90;;;22.00;61.00;;;;;;9181954;19;20021;-63
2022/08/07 08:06:10;;;;;;;6.97;3.75;;;22.20;60.70;;;;;;9177486;19;20098;-66
2022/08/07 08:09:20;;;;;;;5.07;3.10;;;22.40;60.30;;;;;;9172714;19;20026;-63
2022/08/07 08:12:29;;;;;;;6.40;2.90;;;22.60;60.00;;;;;;9175708;19;20464;-64
2022/08/07 08:15:56;;;;;;;6.43;3.35;;;22.80;59.70;;;;;;9177126;19;20086;-63
2022/08/07 08:19:07;;;;;;;8.85;2.70;;;23.00;59.50;;;;;;9177176;19;20048;-65
2022/08/07 08:29:21;;;;;;;4.97;2.95;;;23.50;58.80;;;;;;9176535;19;20023;-64
2022/08/07 08:32:29;;;;;;;5.13;2.28;;;23.70;58.50;;;;;;9175466;19;20010;-64
2022/08/07 08:35:44;;;;;;;4.72;2.40;;;23.90;58.30;;;;;;9172719;19;20014;-65
2022/08/07 08:38:58;;;;;;;3.95;2.38;;;24.00;58.00;;;;;;9176714;19;20025;-65
2022/08/07 08:42:08;;;;;;;3.30;2.28;;;24.20;57.70;;;;;;9174707;19;20030;-64
2022/08/07 08:45:33;;;;;;;3.50;1.88;;;24.30;57.50;;;;;;9176486;19;20018;-64
2022/08/07 08:49:06;;;;;;;5.05;2.15;;;24.50;57.60;;;;;;9173662;19;20018;-64
2022/08/07 08:52:20;;;;;;;6.03;2.10;;;24.60;56.90;;;;;;9174491;19;20496;-65
2022/08/07 08:55:35;;;;;;;4.22;2.20;;;24.80;56.60;;;;;;9172333;19;20037;-65
2022/08/07 08:59:07;;;;;;;3.42;2.28;;;24.90;56.30;;;;;;9174515;19;20476;-64
2022/08/07 09:02:36;;;;;;;5.10;1.90;;;25.00;56.10;;;;;;9174140;19;20019;-64
2022/08/07 09:05:49;;;;;;;8.05;2.63;;;25.10;55.60;;;;;;9174022;19;20048;-66
2022/08/07 09:09:04;;;;;;;2.95;1.95;;;25.30;55.70;;;;;;9175661;19;20035;-65
2022/08/07 09:12:30;;;;;;;2.80;1.75;;;25.40;55.60;;;;;;9172895;19;20017;-64
2022/08/07 09:15:45;;;;;;;3.90;1.88;;;25.60;55.20;;;;;;9172977;19;20018;-65
2022/08/07 09:19:22;;;;;;;5.50;2.40;;;25.70;55.00;;;;;;9173562;19;20015;-65
2022/08/07 09:22:58;;;;;;;6.05;1.80;;;25.80;54.60;;;;;;9171600;19;20015;-65
2022/08/07 09:26:31;;;;;;;3.85;1.85;;;25.90;54.50;;;;;;9175141;19;20093;-65
2022/08/07 09:29:47;;;;;;;4.47;1.97;;;26.00;54.40;;;;;;9172908;19;20035;-66
2022/08/07 09:33:23;;;;;;;4.45;1.88;;;26.10;54.20;;;;;;9169437;19;20031;-66
2022/08/07 09:36:56;;;;;;;4.45;1.77;;;26.30;54.10;;;;;;9165115;19;20471;-65
2022/08/07 09:40:10;;;;;;;4.00;1.83;;;26.50;54.00;;;;;;9169095;19;20583;-66
2022/08/07 09:43:27;;;;;;;4.13;2.20;;;26.60;53.70;;;;;;9167455;19;20025;-66
2022/08/07 09:47:05;;;;;;;3.20;2.15;;;26.70;53.50;;;;;;9168103;19;20950;-66
2022/08/07 09:50:37;;;;;;;5.18;1.92;;;26.80;53.10;;;;;;9176281;19;20014;-65
2022/08/07 09:53:49;;;;;;;5.63;1.88;;;27.00;53.10;;;;;;9177024;19;20022;-66
2022/08/07 09:57:28;;;;;;;2.45;1.88;;;27.00;52.80;;;;;;9172441;19;20010;-65
2022/08/07 10:00:50;;;;;;;5.32;2.20;;;27.20;52.60;;;;;;9176700;19;20018;-65
2022/08/07 10:04:16;;;;;;;4.80;1.90;;;27.30;52.50;;;;;;9176138;19;20018;-69
2022/08/07 10:07:55;;;;;;;3.95;2.05;;;27.40;52.10;;;;;;9184102;19;20037;-67
2022/08/07 10:11:13;;;;;;;4.13;1.73;;;27.50;51.90;;;;;;9182501;19;20018;-68
2022/08/07 10:15:16;;;;;;;7.07;2.70;;;27.50;51.60;;;;;;9186141;19;20022;-68
2022/08/07 10:18:35;;;;;;;3.58;1.65;;;27.60;51.10;;;;;;9186048;19;20049;-68
2022/08/07 10:21:49;;;;;;;2.55;1.33;;;27.70;51.30;;;;;;9185439;19;20014;-68
2022/08/07 10:25:22;;;;;;;5.53;1.90;;;27.70;51.10;;;;;;9187141;19;20029;-68
2022/08/07 10:29:00;;;;;;;3.63;2.25;;;27.70;51.00;;;;;;9184773;19;20562;-68
2022/08/07 10:32:28;;;;;;;4.88;2.50;;;27.70;50.70;;;;;;9185184;19;20479;-68
2022/08/07 10:36:10;;;;;;;3.10;2.00;;;27.60;50.60;;;;;;9177789;19;20018;-67
2022/08/07 10:39:34;;;;;;;2.65;1.88;;;27.60;50.80;;;;;;9184217;19;20021;-67
2022/08/07 10:43:08;;;;;;;6.32;2.17;;;27.70;51.20;;;;;;9185883;19;20031;-68
2022/08/07 10:46:22;;;;;;;7.22;2.22;;;27.70;50.50;;;;;;9184916;19;20014;-67
2022/08/07 10:49:39;;;;;;;2.90;2.05;;;27.80;50.30;;;;;;9185705;19;20364;-67
2022/08/07 10:53:02;;;;;;;4.50;2.50;;;27.80;50.10;;;;;;9183555;19;20015;-67
2022/08/07 10:56:20;;;;;;;5.57;2.72;;;27.90;50.00;;;;;;9182483;19;20135;-67
2022/08/07 10:59:47;;;;;;;3.92;2.40;;;27.90;49.70;;;;;;9184579;19;20452;-67
2022/08/07 11:03:06;;;;;;;3.83;2.30;;;28.00;49.70;;;;;;9183345;19;20023;-66
2022/08/07 11:06:23;;;;;;;3.75;2.25;;;28.00;49.30;;;;;;9174500;19;20078;-68
2022/08/07 11:09:47;;;;;;;6.00;2.10;;;28.10;49.30;;;;;;9173042;19;20010;-69
2022/08/07 11:13:20;;;;;;;3.63;2.33;;;28.10;49.30;;;;;;9177930;19;20023;-69
2022/08/07 11:16:55;;;;;;;3.08;1.92;;;28.10;49.10;;;;;;9177100;19;20353;-69
2022/08/07 11:20:14;;;;;;;6.53;2.58;;;28.10;49.00;;;;;;9174981;19;20019;-69
2022/08/07 11:23:28;;;;;;;3.65;2.22;;;28.10;48.80;;;;;;9176637;19;20022;-68
2022/08/07 11:26:48;;;;;;;4.13;1.60;;;28.10;48.70;;;;;;9179511;19;20023;-69
2022/08/07 11:30:00;;;;;;;2.05;1.63;;;28.10;48.70;;;;;;9177033;19;20050;-68
2022/08/07 11:33:30;;;;;;;6.28;2.15;;;28.10;48.30;;;;;;9176582;19;20019;-69
2022/08/07 11:37:04;;;;;;;3.42;2.05;;;28.10;48.20;;;;;;9175039;19;20022;-68
2022/08/07 11:40:24;;;;;;;2.72;1.45;;;28.10;48.00;;;;;;9176073;19;20117;-69
2022/08/07 11:43:33;;;;;;;5.20;2.00;;;28.20;48.00;;;;;;9175948;19;20021;-69
2022/08/07 11:47:11;;;;;;;2.63;1.95;;;28.30;48.00;;;;;;9172788;19;20036;-68
2022/08/07 11:50:31;;;;;;;3.17;2.20;;;28.40;47.90;;;;;;9171848;19;20518;-69
2022/08/07 11:53:51;;;;;;;3.38;2.03;;;28.40;47.60;;;;;;9171645;19;20029;-70
2022/08/07 11:57:17;;;;;;;5.10;2.00;;;28.50;47.50;;;;;;9170354;19;20658;-69
2022/08/07 12:00:31;;;;;;;3.65;2.22;;;28.60;47.50;;;;;;9174166;19;20811;-68
2022/08/07 12:03:58;;;;;;;5.70;2.17;;;28.70;47.30;;;;;;9174920;19;20010;-69
2022/08/07 12:07:11;;;;;;;2.53;1.85;;;28.80;47.10;;;;;;9173697;19;20037;-68
2022/08/07 12:10:42;;;;;;;5.07;2.20;;;28.80;47.10;;;;;;9166180;19;20018;-67
2022/08/07 12:13:56;;;;;;;5.57;2.23;;;28.90;46.90;;;;;;9176947;19;20026;-68
2022/08/07 12:17:07;;;;;;;8.25;2.17;;;29.00;46.90;;;;;;9170627;19;20026;-67
2022/08/07 12:20:29;;;;;;;2.90;2.15;;;29.10;46.70;;;;;;9177599;19;20022;-66
2022/08/07 12:23:47;;;;;;;9.50;2.20;;;29.20;46.60;;;;;;9177495;19;20060;-66
2022/08/07 12:27:18;;;;;;;3.55;2.00;;;29.20;46.40;;;;;;9177093;19;20031;-66
2022/08/07 12:30:45;;;;;;;5.07;2.00;;;29.30;46.50;;;;;;9175632;19;20086;-67
2022/08/07 12:33:59;;;;;;;3.53;2.00;;;29.40;46.50;;;;;;9174481;19;20403;-68
2022/08/07 12:37:07;;;;;;;5.03;2.28;;;29.40;46.30;;;;;;9167670;19;20018;-69
2022/08/07 12:40:31;;;;;;;3.58;2.33;;;29.50;46.10;;;;;;9172000;19;20025;-68
2022/08/07 12:43:59;;;;;;;4.72;2.30;;;29.60;46.00;;;;;;9171532;19;20054;-68
2022/08/07 12:47:20;;;;;;;5.95;2.00;;;29.60;45.70;;;;;;9170765;19;20057;-69
2022/08/07 12:50:47;;;;;;;4.53;1.95;;;29.70;45.40;;;;;;9172063;19;20021;-68
2022/08/07 12:53:59;;;;;;;4.03;2.67;;;29.70;45.20;;;;;;9171291;19;20022;-68
2022/08/07 12:57:29;;;;;;;9.52;2.47;;;29.70;45.20;;;;;;9167400;19;20022;-68
2022/08/07 13:01:05;;;;;;;2.65;1.77;;;29.80;45.10;;;;;;9168814;19;20841;-68
2022/08/07 13:04:31;;;;;;;4.25;1.65;;;29.80;44.80;;;;;;9170290;19;20019;-67
2022/08/07 13:08:05;;;;;;;2.70;1.80;;;29.70;44.60;;;;;;9170073;19;20024;-66
2022/08/07 13:11:32;;;;;;;2.80;1.70;;;29.70;44.60;;;;;;9161218;19;20018;-66
2022/08/07 13:15:08;;;;;;;2.17;1.70;;;29.70;44.60;;;;;;9167708;19;20022;-69
2022/08/07 13:18:31;;;;;;;5.60;2.10;;;29.70;44.70;;;;;;9168197;19;20018;-68
2022/08/07 13:21:44;;;;;;;4.75;2.22;;;29.70;44.40;;;;;;9172222;19;20019;-68
2022/08/07 13:25:12;;;;;;;5.25;1.92;;;29.70;44.40;;;;;;9176783;19;20531;-68
2022/08/07 13:28:40;;;;;;;3.67;2.10;;;29.70;44.30;;;;;;9174842;19;20018;-68
2022/08/07 13:31:50;;;;;;;;;;;29.60;44.20;;;;;;9181734;19;20131;-68
2022/08/07 13:35:06;;;;;;;;;;;29.60;44.30;;;;;;9176607;19;19929;-68
2022/08/07 13:38:19;;;;;;;5.35;2.15;;;29.50;45.10;;;;;;9176327;19;19926;-69
2022/08/07 13:41:36;;;;;;;3.92;2.42;;;29.50;44.90;;;;;;9181357;19;20476;-69
2022/08/07 13:44:46;;;;;;;2.40;1.73;;;29.40;44.40;;;;;;9184196;19;20680;-67
2022/08/07 13:48:16;;;;;;;2.08;1.83;;;29.40;44.40;;;;;;9176550;19;20018;-66
2022/08/07 13:51:41;;;;;;;3.33;1.63;;;29.30;44.20;;;;;;9174863;19;20030;-67
2022/08/07 13:55:14;;;;;;;5.65;1.90;;;29.30;44.20;;;;;;9177454;19;20500;-67
2022/08/07 14:02:07;;;;;;;2.60;1.70;;;29.10;44.20;;;;;;9177417;19;20019;-68
2022/08/07 14:05:16;;;;;;;2.58;2.00;;;29.00;44.00;;;;;;9175652;19;20405;-71
2022/08/07 14:08:26;;;;;;;2.17;1.63;;;29.00;44.00;;;;;;9176992;19;20426;-68
2022/08/07 14:11:36;;;;;;;4.13;1.75;;;29.00;43.80;;;;;;9170515;19;20014;-69
2022/08/07 14:15:06;;;;;;;2.33;1.70;;;28.90;43.80;;;;;;9171944;19;20118;-69
2022/08/07 14:18:17;;;;;;;2.85;1.88;;;28.90;43.80;;;;;;9176149;19;20111;-67
2022/08/07 14:21:42;;;;;;;2.67;1.85;;;28.90;43.60;;;;;;9175875;19;20022;-67
2022/08/07 14:25:15;;;;;;;6.18;2.08;;;28.80;43.60;;;;;;9172867;19;20039;-71
2022/08/07 14:28:20;;;;;;;4.70;1.95;;;28.80;43.40;;;;;;9174697;19;20032;-68
2022/08/07 14:31:48;;;;;;;2.90;1.60;;;28.70;43.40;;;;;;9180544;19;20431;-67
2022/08/07 14:35:19;;;;;;;5.63;2.25;;;28.70;43.50;;;;;;9176965;19;20035;-67
2022/08/07 14:38:48;;;;;;;3.00;1.80;;;28.60;43.40;;;;;;9174660;19;20450;-69
2022/08/07 14:41:58;;;;;;;2.83;1.77;;;28.60;43.60;;;;;;9176450;19;20025;-69
2022/08/07 14:45:25;;;;;;;4.30;1.90;;;28.60;43.50;;;;;;9181362;19;20022;-68
2022/08/07 14:48:53;;;;;;;4.13;2.08;;;28.60;43.50;;;;;;9178794;19;20337;-68
2022/08/07 14:52:00;;;;;;;2.28;1.60;;;28.60;43.50;;;;;;9175239;19;20030;-67
2022/08/07 14:55:12;;;;;;;3.28;1.60;;;28.60;43.40;;;;;;9175271;19;20010;-67
2022/08/07 14:58:30;;;;;;;4.75;1.95;;;28.60;43.30;;;;;;9173643;19;20022;-68
2022/08/07 15:01:40;;;;;;;1.88;1.65;;;28.60;43.20;;;;;;9174736;19;20014;-69
2022/08/07 15:04:55;;;;;;;4.88;2.20;;;28.60;43.30;;;;;;9172160;19;20050;-68
2022/08/07 15:08:09;;;;;;;3.22;2.40;;;28.60;43.30;;;;;;9176152;19;20019;-68
2022/08/07 15:11:23;;;;;;;3.80;2.47;;;28.50;43.10;;;;;;9170425;19;20095;-68
2022/08/07 15:14:54;;;;;;;2.80;1.88;;;28.50;43.20;;;;;;9175182;19;20014;-68
2022/08/07 15:18:03;;;;;;;;;;;28.40;43.20;;;;;;9175925;19;20030;-68
2022/08/07 15:21:22;;;;;;;5.13;1.73;;;28.40;43.60;;;;;;9173397;19;19926;-68
2022/08/07 15:24:51;;;;;;;1.60;1.38;;;28.30;43.50;;;;;;9170773;19;20086;-68
2022/08/07 15:28:21;;;;;;;3.45;1.90;;;28.20;43.40;;;;;;9175783;19;20714;-67
2022/08/07 15:31:43;;;;;;;2.03;1.40;;;28.10;43.40;;;;;;9177502;19;20011;-67
2022/08/07 15:35:06;;;;;;;2.90;1.55;;;28.00;43.40;;;;;;9176490;19;20010;-68
2022/08/07 15:38:12;;;;;;;2.78;1.30;;;27.90;43.50;;;;;;9174518;19;20021;-69
2022/08/07 15:41:41;;;;;;;1.80;1.42;;;27.80;43.40;;;;;;9173821;19;20496;-68
2022/08/07 15:45:07;;;;;;;3.75;1.85;;;27.70;43.30;;;;;;9173265;19;20413;-67
2022/08/07 15:48:24;;;;;;;3.05;1.60;;;27.60;43.50;;;;;;9176198;19;20010;-68
2022/08/07 15:51:34;;;;;;;2.38;1.40;;;27.50;43.40;;;;;;9178727;19;20022;-67
2022/08/07 15:55:00;;;;;;;1.63;1.20;;;27.40;43.50;;;;;;9175349;19;20027;-68
2022/08/07 15:58:08;;;;;;;2.10;1.45;;;27.40;43.50;;;;;;9169416;19;21128;-67
2022/08/07 16:01:26;;;;;;;2.65;1.50;;;27.30;43.40;;;;;;9173182;19;20044;-68
2022/08/07 16:04:46;;;;;;;3.00;1.30;;;27.20;43.40;;;;;;9172343;19;20010;-68
2022/08/07 16:07:55;;;;;;;1.52;1.40;;;27.20;43.40;;;;;;9172480;19;20050;-68
2022/08/07 16:11:43;;;;;;;3.08;1.65;;;27.10;43.40;;;;;;9166001;19;20010;-67
2022/08/07 16:15:06;;;;;;;9.23;2.75;;;27.00;43.20;;;;;;9170297;19;20020;-68
2022/08/07 16:18:19;;;;;;;2.63;1.45;;;26.90;43.30;;;;;;9167894;19;20500;-67
2022/08/07 16:21:55;;;;;;;3.28;1.60;;;26.90;43.40;;;;;;9173681;19;20030;-68
2022/08/07 16:25:29;;;;;;;2.90;1.45;;;26.80;43.40;;;;;;9168981;19;20081;-68
2022/08/07 16:29:08;;;;;;;3.00;1.58;;;26.80;43.30;;;;;;9172337;19;20014;-67
2022/08/07 16:32:45;;;;;;;4.97;1.43;;;26.70;43.30;;;;;;9170045;19;20019;-67
2022/08/07 16:36:21;;;;;;;2.15;1.50;;;26.60;43.40;;;;;;9170644;19;20052;-68
2022/08/07 16:40:04;;;;;;;4.22;1.40;;;26.50;43.30;;;;;;9168750;19;20014;-69
2022/08/07 16:43:27;;;;;;;1.63;1.40;;;26.50;43.40;;;;;;9171750;19;20042;-67
2022/08/07 16:47:17;;;;;;;2.60;1.38;;;26.40;43.60;;;;;;9167913;19;20025;-69
2022/08/07 16:50:57;;;;;;;1.40;1.30;;;26.30;43.50;;;;;;9171236;19;20018;-66
2022/08/07 16:54:33;;;;;;;3.22;1.15;;;26.20;43.60;;;;;;9169994;19;20523;-67
2022/08/07 16:57:53;;;;;;;1.65;1.52;;;26.10;43.60;;;;;;9168548;19;20014;-68
2022/08/07 17:01:31;;;;;;;1.70;1.40;;;26.00;43.70;;;;;;9169950;19;20025;-67
2022/08/07 17:04:42;;;;;;;2.85;1.75;;;26.00;43.70;;;;;;9167435;19;20018;-69
2022/08/07 17:08:03;;;;;;;1.45;1.30;;;25.90;43.80;;;;;;9170170;19;20018;-69
2022/08/07 17:11:17;;;;;;;3.63;1.75;;;25.70;43.80;;;;;;9166018;19;20022;-68
2022/08/07 17:14:35;;;;;;;1.65;1.20;;;25.70;43.80;;;;;;9167567;19;20018;-69
2022/08/07 17:17:46;;;;;;;2.85;1.27;;;25.60;43.80;;;;;;9172069;19;20021;-66
2022/08/07 17:20:52;;;;;;;2.47;1.50;;;25.50;43.90;;;;;;9165964;19;20019;-66
2022/08/07 17:24:18;;;;;;;1.63;1.52;;;25.40;43.90;;;;;;9168395;19;20420;-66